Suquamish, Washington
Current Conditions -  °F | °C
As of 7:53 PM on Wednesday 22 Oct 2014 (Local Time) from KPAE Reporting Station
Light Rain Light Rain  
Wind Chill: 54°   Ceiling: 6000
Heat Index: 54°   Visibility: 9mi
Dew Point: 51°   Wind: 9mph
Humidity: 90%   Direction: 150°SSE
Pressure: 29.56"   Gusts: NA
Location:  47.73°N, 122.55°W
Report Text: KPAE 230253Z 15008KT 9SM -RA OVC060 12/11 A2956 RMK AO2 RAB11 SLP010 P0005 60011 T01220106 56015
Loading
Personal Weather Stations






























Interactive Weather Map
Tropical Storm Tracking
New forecast layout! Learn more

10-Day Weather Forecast

Advertisements
Track Severe Weather on mobile